No.3tokuyomaru — JD3132 — position and weather

sailwx.info

Track history (hours):
 
Tides and Currents Weather Stations Pressure Air Temp Water Temp Dewpoint Dewpoint Depression Visibility Wind Speed Wind Dir Waves Ship Positions

No.3tokuyomaru

Last reported at 2017-Mar-21 21:31 UTC. Time now 2017-Mar-25 17:40 UTC.
Position N 35°00' E 139°47'.

Length 67 m; draft 4.3 m.

Type: Tanker. MMSI: 431002151.

Date/timePositionNaut miles runAvg speedWind from/ knotsBaromVisibWave heightAir tempDewpointWater temp
2017-Mar-21 21:31N 35°00' E 139°47'3 3.2
2017-Mar-21 20:33N 35°01' E 139°50'0 0.0
2017-Mar-21 19:33N 35°01' E 139°50'0 0.0
2017-Mar-21 18:34N 35°01' E 139°50'0 0.0
2017-Mar-21 17:33N 35°01' E 139°50'0 0.0
2017-Mar-21 16:33N 35°01' E 139°50'0 0.1
2017-Mar-21 15:33N 35°01' E 139°50'0 0.0
2017-Mar-21 14:33N 35°01' E 139°50'0 0.0
2017-Mar-21 13:33N 35°01' E 139°50'0 0.1
2017-Mar-21 12:34N 35°01' E 139°50'0 0.0
2017-Mar-21 11:34N 35°01' E 139°50'0 0.0
2017-Mar-21 10:34N 35°01' E 139°50'0 0.0
2017-Mar-21 09:34N 35°01' E 139°50'0 0.0
2017-Mar-21 08:33N 35°01' E 139°50'0 0.0
2017-Mar-21 07:34N 35°01' E 139°50'2 1.9
2017-Mar-21 06:32N 35°01' E 139°48'1212.2
2017-Mar-21 05:33N 35°13' E 139°47'1212.1
2017-Mar-21 04:33N 35°25' E 139°43'6 5.5
2017-Mar-21 03:31N 35°30' E 139°45'0 0.0
2017-Mar-21 02:31N 35°30' E 139°45'0 0.0
2017-Mar-21 01:31N 35°30' E 139°45'0 0.0
2017-Mar-21 00:31N 35°30' E 139°45'0 0.0
2017-Mar-20 23:31N 35°30' E 139°45'0 0.0
2017-Mar-20 22:32N 35°30' E 139°45'5 5.5
2017-Mar-20 21:33N 35°25' E 139°47'1211.7
2017-Mar-20 20:33N 35°14' E 139°47'1010.4
2017-Mar-20 19:33N 35°07' E 139°37'2 0.1
2017-Mar-19 22:33N 35°09' E 139°36'2 1.4
2017-Mar-19 21:19N 35°08' E 139°38'0 0.0
2017-Mar-19 20:25N 35°08' E 139°38'0 0.0
2017-Mar-19 19:31N 35°08' E 139°38'0 0.1
2017-Mar-19 18:31N 35°08' E 139°38'4 4.5
2017-Mar-19 17:33N 35°04' E 139°40'8 0.2
2017-Mar-18 06:04N 34°57' E 139°44'612.5
2017-Mar-18 05:34N 35°03' E 139°44'1312.7
2017-Mar-18 04:33N 35°16' E 139°46'1110.9
2017-Mar-18 03:34N 35°27' E 139°46'4 0.9
2017-Mar-17 22:33N 35°31' E 139°46'3 3.0
2017-Mar-17 21:34N 35°30' E 139°49'8 8.4
2017-Mar-17 20:33N 35°22' E 139°45'1110.9
2017-Mar-17 19:33N 35°11' E 139°46'1211.9
2017-Mar-17 18:33N 34°59' E 139°43'  
2017-Mar-14 10:29N 34°11' E 134°60'1812.6
2017-Mar-14 09:05N 34°28' E 135°02'612.1
2017-Mar-14 08:33N 34°34' E 135°03'225 4.6
2017-Mar-12 07:32N 35°02' E 139°36'1312.7
2017-Mar-12 06:33N 35°12' E 139°46'1211.6
2017-Mar-12 05:33N 35°23' E 139°42'8 8.4
2017-Mar-12 04:33N 35°31' E 139°46'0 0.0
2017-Mar-12 03:25N 35°31' E 139°46'0 0.0
2017-Mar-12 02:24N 35°31' E 139°46'0 0.0
2017-Mar-12 01:24N 35°31' E 139°46'0 0.0
2017-Mar-12 00:30N 35°31' E 139°46'0 0.0
2017-Mar-11 23:24N 35°31' E 139°46'0 0.0
2017-Mar-11 22:30N 35°31' E 139°46'3 2.9
2017-Mar-11 21:33N 35°29' E 139°49'  
Track history (hours):
 
Tides and Currents Weather Stations Pressure Air Temp Water Temp Dewpoint Dewpoint Depression Visibility Wind Speed Wind Dir Waves Ship Positions

No.3tokuyomaru

Last reported at 2017-Mar-21 21:31 UTC. Time now 2017-Mar-25 17:40 UTC.
Position N 35°00' E 139°47'.

Length 67 m; draft 4.3 m.

Type: Tanker. MMSI: 431002151.

Date/timePositionNaut miles runAvg speedWind from/ knotsBaromVisibWave heightAir tempDewpointWater temp
2017-Mar-21 21:31N 35°00' E 139°47'3 3.2
2017-Mar-21 20:33N 35°01' E 139°50'0 0.0
2017-Mar-21 19:33N 35°01' E 139°50'0 0.0
2017-Mar-21 18:34N 35°01' E 139°50'0 0.0
2017-Mar-21 17:33N 35°01' E 139°50'0 0.0
2017-Mar-21 16:33N 35°01' E 139°50'0 0.1
2017-Mar-21 15:33N 35°01' E 139°50'0 0.0
2017-Mar-21 14:33N 35°01' E 139°50'0 0.0
2017-Mar-21 13:33N 35°01' E 139°50'0 0.1
2017-Mar-21 12:34N 35°01' E 139°50'0 0.0
2017-Mar-21 11:34N 35°01' E 139°50'0 0.0
2017-Mar-21 10:34N 35°01' E 139°50'0 0.0
2017-Mar-21 09:34N 35°01' E 139°50'0 0.0
2017-Mar-21 08:33N 35°01' E 139°50'0 0.0
2017-Mar-21 07:34N 35°01' E 139°50'2 1.9
2017-Mar-21 06:32N 35°01' E 139°48'1212.2
2017-Mar-21 05:33N 35°13' E 139°47'1212.1
2017-Mar-21 04:33N 35°25' E 139°43'6 5.5
2017-Mar-21 03:31N 35°30' E 139°45'0 0.0
2017-Mar-21 02:31N 35°30' E 139°45'0 0.0
2017-Mar-21 01:31N 35°30' E 139°45'0 0.0
2017-Mar-21 00:31N 35°30' E 139°45'0 0.0
2017-Mar-20 23:31N 35°30' E 139°45'0 0.0
2017-Mar-20 22:32N 35°30' E 139°45'5 5.5
2017-Mar-20 21:33N 35°25' E 139°47'1211.7
2017-Mar-20 20:33N 35°14' E 139°47'1010.4
2017-Mar-20 19:33N 35°07' E 139°37'2 0.1
2017-Mar-19 22:33N 35°09' E 139°36'2 1.4
2017-Mar-19 21:19N 35°08' E 139°38'0 0.0
2017-Mar-19 20:25N 35°08' E 139°38'0 0.0
2017-Mar-19 19:31N 35°08' E 139°38'0 0.1
2017-Mar-19 18:31N 35°08' E 139°38'4 4.5
2017-Mar-19 17:33N 35°04' E 139°40'8 0.2
2017-Mar-18 06:04N 34°57' E 139°44'612.5
2017-Mar-18 05:34N 35°03' E 139°44'1312.7
2017-Mar-18 04:33N 35°16' E 139°46'1110.9
2017-Mar-18 03:34N 35°27' E 139°46'4 0.9
2017-Mar-17 22:33N 35°31' E 139°46'3 3.0
2017-Mar-17 21:34N 35°30' E 139°49'8 8.4
2017-Mar-17 20:33N 35°22' E 139°45'1110.9
2017-Mar-17 19:33N 35°11' E 139°46'1211.9
2017-Mar-17 18:33N 34°59' E 139°43'  
2017-Mar-14 10:29N 34°11' E 134°60'1812.6
2017-Mar-14 09:05N 34°28' E 135°02'612.1
2017-Mar-14 08:33N 34°34' E 135°03'225 4.6
2017-Mar-12 07:32N 35°02' E 139°36'1312.7
2017-Mar-12 06:33N 35°12' E 139°46'1211.6
2017-Mar-12 05:33N 35°23' E 139°42'8 8.4
2017-Mar-12 04:33N 35°31' E 139°46'0 0.0
2017-Mar-12 03:25N 35°31' E 139°46'0 0.0
2017-Mar-12 02:24N 35°31' E 139°46'0 0.0
2017-Mar-12 01:24N 35°31' E 139°46'0 0.0
2017-Mar-12 00:30N 35°31' E 139°46'0 0.0
2017-Mar-11 23:24N 35°31' E 139°46'0 0.0
2017-Mar-11 22:30N 35°31' E 139°46'3 2.9
2017-Mar-11 21:33N 35°29' E 139°49'  

Dump ship's entire track history